createdAt,value
2022-10-31T00:02:06.096Z,78.11
2022-10-31T00:04:33.486Z,78.15
2022-10-31T00:07:06.586Z,78.13
2022-10-31T00:09:34.157Z,78.27
2022-10-31T00:12:01.577Z,78.13
2022-10-31T00:14:29.640Z,78.14
2022-10-31T00:16:57.042Z,78.07
2022-10-31T00:19:32.451Z,78.40
2022-10-31T00:21:59.981Z,78.49
2022-10-31T00:24:27.264Z,78.60
2022-10-31T00:26:54.728Z,78.52
2022-10-31T00:29:22.587Z,78.53
2022-10-31T00:31:50.385Z,78.59
2022-10-31T00:34:17.863Z,78.90
2022-10-31T00:36:45.345Z,78.92
2022-10-31T00:39:14.560Z,78.77
2022-10-31T00:41:42.211Z,78.68
2022-10-31T00:44:14.346Z,79.18
2022-10-31T00:46:42.593Z,79.35
2022-10-31T00:49:10.008Z,79.33
2022-10-31T00:51:39.847Z,79.46
2022-10-31T00:54:07.416Z,79.55
2022-10-31T00:56:35.788Z,79.10
2022-10-31T00:59:03.636Z,78.65
2022-10-31T01:01:31.027Z,78.46
2022-10-31T01:03:58.503Z,78.36
2022-10-31T01:06:28.432Z,78.59
2022-10-31T01:08:58.033Z,78.47
2022-10-31T01:11:25.556Z,78.25
2022-10-31T01:13:55.148Z,78.27
2022-10-31T01:16:28.556Z,78.04
2022-10-31T01:18:57.517Z,78.50
2022-10-31T01:21:30.932Z,78.41
2022-10-31T01:24:00.458Z,78.21
2022-10-31T01:26:35.066Z,79.00
2022-10-31T01:29:07.231Z,78.51
2022-10-31T01:31:39.444Z,78.71
2022-10-31T01:34:08.084Z,78.63
2022-10-31T01:36:39.270Z,78.38
2022-10-31T01:39:11.026Z,78.53
2022-10-31T01:41:42.051Z,78.37
2022-10-31T01:44:16.018Z,78.20
2022-10-31T01:46:54.804Z,78.20
2022-10-31T01:49:45.437Z,78.35
2022-10-31T01:52:21.718Z,78.03
2022-10-31T01:54:57.251Z,77.77
2022-10-31T01:57:26.860Z,77.69
2022-10-31T01:59:59.741Z,77.66
2022-10-31T02:02:30.021Z,77.64
2022-10-31T02:05:01.340Z,77.99
2022-10-31T02:07:35.567Z,77.87
2022-10-31T02:10:04.406Z,77.70
2022-10-31T02:12:34.333Z,77.48
2022-10-31T02:15:02.185Z,77.72
2022-10-31T02:17:35.595Z,77.64
2022-10-31T02:20:22.636Z,78.05
2022-10-31T02:23:31.775Z,77.60
2022-10-31T02:26:22.831Z,78.12
2022-10-31T02:29:17.446Z,78.27
2022-10-31T02:31:57.962Z,78.41
2022-10-31T02:34:57.783Z,78.09
2022-10-31T02:37:40.236Z,77.91
2022-10-31T02:40:30.174Z,77.82
2022-10-31T02:43:42.369Z,77.98
2022-10-31T02:49:47.085Z,78.53
2022-10-31T02:52:27.690Z,78.63
2022-10-31T02:55:12.718Z,78.78
2022-10-31T02:57:42.278Z,78.53
2022-10-31T03:00:10.887Z,78.62
2022-10-31T03:03:05.910Z,78.10
2022-10-31T03:05:58.168Z,78.59
2022-10-31T03:08:45.155Z,78.74
2022-10-31T03:11:12.807Z,78.83
2022-10-31T03:13:47.681Z,78.72
2022-10-31T03:16:25.458Z,78.67
2022-10-31T03:19:04.915Z,78.47
2022-10-31T03:21:37.010Z,78.51
2022-10-31T03:24:08.255Z,78.57
2022-10-31T03:26:53.411Z,78.46
2022-10-31T03:29:26.721Z,78.85
2022-10-31T03:32:03.224Z,78.70
2022-10-31T03:34:32.356Z,79.06
2022-10-31T03:37:06.597Z,78.46
2022-10-31T03:39:36.028Z,78.68
2022-10-31T03:42:09.167Z,78.71
2022-10-31T03:44:39.231Z,78.72
2022-10-31T03:47:06.976Z,78.78
2022-10-31T03:49:36.615Z,79.05
2022-10-31T03:52:10.663Z,79.21
2022-10-31T03:54:45.279Z,78.97
2022-10-31T03:57:31.715Z,78.53
2022-10-31T04:00:05.352Z,78.49
2022-10-31T04:02:39.547Z,78.69
2022-10-31T04:05:09.380Z,79.07
2022-10-31T04:07:43.006Z,79.10
2022-10-31T04:10:14.700Z,79.42
2022-10-31T04:12:48.837Z,79.39
2022-10-31T04:15:27.694Z,79.12
2022-10-31T04:17:59.432Z,78.79
2022-10-31T04:20:37.218Z,78.50
2022-10-31T04:23:08.925Z,77.94
2022-10-31T04:25:43.431Z,78.09
2022-10-31T04:28:13.069Z,77.88
2022-10-31T04:30:41.858Z,78.00
2022-10-31T04:33:10.564Z,78.13
2022-10-31T04:35:38.826Z,77.80
2022-10-31T04:38:06.523Z,77.99
2022-10-31T04:40:34.611Z,78.07
2022-10-31T04:43:21.568Z,78.47
2022-10-31T04:45:49.206Z,78.90
2022-10-31T04:48:21.715Z,78.96
2022-10-31T04:50:49.747Z,79.23
2022-10-31T04:53:17.279Z,79.35
2022-10-31T04:56:12.162Z,79.18
2022-10-31T04:58:44.371Z,79.32
2022-10-31T05:01:12.941Z,78.64
2022-10-31T05:03:41.118Z,78.98
2022-10-31T05:06:09.320Z,78.43
2022-10-31T05:08:40.870Z,78.44
2022-10-31T05:11:09.843Z,78.76
2022-10-31T05:13:38.344Z,78.73
2022-10-31T05:16:14.629Z,78.76
2022-10-31T05:19:01.006Z,78.65
2022-10-31T05:22:03.830Z,78.31
2022-10-31T05:24:33.268Z,78.04
2022-10-31T05:27:00.894Z,78.17
2022-10-31T05:29:28.327Z,78.14
2022-10-31T05:31:55.732Z,78.02
2022-10-31T05:34:46.512Z,77.85
2022-10-31T05:37:43.479Z,78.05
2022-10-31T05:40:13.629Z,77.81
2022-10-31T05:42:41.996Z,78.02
2022-10-31T05:45:17.730Z,77.87
2022-10-31T05:47:55.572Z,77.71
2022-10-31T05:50:52.277Z,77.87
2022-10-31T05:53:19.951Z,77.75
2022-10-31T05:55:48.626Z,77.78
2022-10-31T05:58:20.170Z,78.31
2022-10-31T06:00:58.942Z,77.86
2022-10-31T06:03:26.523Z,77.94
2022-10-31T06:05:56.930Z,78.03
2022-10-31T06:08:29.783Z,78.05
2022-10-31T06:11:00.439Z,78.54
2022-10-31T06:13:47.583Z,77.94
2022-10-31T06:16:23.692Z,77.85
2022-10-31T06:19:04.183Z,78.23
2022-10-31T06:21:31.963Z,77.75
2022-10-31T06:23:59.401Z,77.47
2022-10-31T06:26:46.922Z,77.52
2022-10-31T06:29:14.415Z,76.89
2022-10-31T06:32:02.011Z,76.96
2022-10-31T06:34:31.104Z,77.14
2022-10-31T06:36:58.920Z,77.05
2022-10-31T06:39:26.928Z,76.86
2022-10-31T06:41:54.295Z,76.77
2022-10-31T06:44:24.082Z,76.22
2022-10-31T06:47:01.018Z,77.15
2022-10-31T06:49:48.604Z,76.88
2022-10-31T06:52:24.685Z,76.58
2022-10-31T06:54:53.906Z,76.70
2022-10-31T06:57:22.504Z,76.80
2022-10-31T06:59:50.502Z,76.54
2022-10-31T07:02:43.699Z,76.19
2022-10-31T07:05:11.218Z,75.62
2022-10-31T07:07:38.701Z,75.96
2022-10-31T07:10:06.710Z,75.70
2022-10-31T07:13:00.191Z,75.72
2022-10-31T07:15:30.472Z,75.31
2022-10-31T07:18:03.960Z,75.26
2022-10-31T07:20:32.898Z,75.10
2022-10-31T07:23:01.917Z,75.18
2022-10-31T07:25:32.381Z,78.83
2022-10-31T07:28:17.876Z,77.48
2022-10-31T07:30:58.423Z,77.59
2022-10-31T07:33:29.472Z,75.42
2022-10-31T07:36:15.919Z,74.31
2022-10-31T07:38:46.177Z,73.86
2022-10-31T07:41:14.302Z,74.06
2022-10-31T07:43:44.880Z,73.96
2022-10-31T07:46:18.342Z,75.35
2022-10-31T07:49:04.306Z,73.72
2022-10-31T07:51:52.577Z,73.80
2022-10-31T07:54:23.990Z,74.03
2022-10-31T07:56:51.256Z,74.48
2022-10-31T07:59:23.613Z,74.18
2022-10-31T08:01:51.431Z,72.73
2022-10-31T08:04:37.177Z,72.58
2022-10-31T08:07:23.521Z,72.72
2022-10-31T08:09:57.952Z,72.24
2022-10-31T08:12:30.093Z,72.32
2022-10-31T08:14:58.335Z,71.83
2022-10-31T08:17:25.529Z,71.35
2022-10-31T08:19:58.982Z,71.88
2022-10-31T08:22:37.553Z,71.17
2022-10-31T08:25:07.319Z,70.79
2022-10-31T08:27:34.736Z,70.56
2022-10-31T08:30:02.363Z,70.52
2022-10-31T08:32:29.888Z,70.13
2022-10-31T08:35:16.808Z,70.37
2022-10-31T08:38:06.878Z,69.50
2022-10-31T08:40:36.537Z,68.87
2022-10-31T08:43:14.043Z,68.63
2022-10-31T08:45:42.530Z,68.87
2022-10-31T08:48:18.523Z,68.20
2022-10-31T08:50:47.330Z,68.13
2022-10-31T08:53:18.461Z,67.92
2022-10-31T08:55:50.065Z,68.11
2022-10-31T08:58:26.207Z,69.36
2022-10-31T09:01:01.271Z,67.71
2022-10-31T09:03:32.111Z,68.95
2022-10-31T09:06:04.212Z,68.58
2022-10-31T09:08:33.158Z,67.76
2022-10-31T09:11:02.471Z,68.16
2022-10-31T09:13:51.059Z,67.35
2022-10-31T09:16:38.039Z,68.51
2022-10-31T09:19:11.548Z,68.18
2022-10-31T09:21:39.345Z,66.38
2022-10-31T09:24:07.482Z,66.65
2022-10-31T09:26:35.030Z,67.10
2022-10-31T09:29:13.537Z,66.30
2022-10-31T09:31:44.778Z,65.33
2022-10-31T09:34:27.563Z,65.78
2022-10-31T09:37:04.208Z,65.39
2022-10-31T09:39:31.704Z,65.47
2022-10-31T09:42:24.029Z,65.11
2022-10-31T09:44:57.237Z,64.67
2022-10-31T09:47:40.885Z,65.02
2022-10-31T09:51:13.561Z,65.06
2022-10-31T09:54:04.917Z,64.79
2022-10-31T09:56:34.161Z,64.38
2022-10-31T09:59:04.889Z,64.10
2022-10-31T10:02:12.017Z,64.31
2022-10-31T10:04:39.724Z,65.06
2022-10-31T10:07:25.564Z,65.02
2022-10-31T10:10:37.805Z,64.87
2022-10-31T10:13:53.911Z,65.25
2022-10-31T10:16:46.139Z,64.69
2022-10-31T10:19:30.242Z,65.31
2022-10-31T10:22:16.563Z,65.05
2022-10-31T10:24:54.897Z,64.42
2022-10-31T10:27:35.646Z,63.79
2022-10-31T10:30:04.996Z,63.75
2022-10-31T10:32:42.015Z,63.37
2022-10-31T10:35:22.766Z,64.10
2022-10-31T10:37:54.665Z,63.82
2022-10-31T10:40:23.415Z,63.80
2022-10-31T10:43:23.659Z,62.66
2022-10-31T10:46:20.848Z,63.58
2022-10-31T10:49:19.476Z,62.73
2022-10-31T10:52:07.366Z,63.04
2022-10-31T10:54:39.466Z,63.22
2022-10-31T10:57:30.499Z,63.06
2022-10-31T11:00:01.767Z,62.16
2022-10-31T11:02:33.349Z,62.03
2022-10-31T11:05:02.747Z,61.63
2022-10-31T11:07:41.123Z,61.89
2022-10-31T11:10:17.882Z,61.21
2022-10-31T11:12:59.847Z,61.17
2022-10-31T11:15:28.913Z,60.82
2022-10-31T11:17:58.682Z,61.51
2022-10-31T11:20:33.435Z,60.86
2022-10-31T11:23:21.562Z,61.12
2022-10-31T11:26:07.410Z,61.19
2022-10-31T11:28:36.216Z,62.04
2022-10-31T11:31:15.255Z,62.53
2022-10-31T11:33:45.777Z,62.49
2022-10-31T11:36:33.166Z,63.22
2022-10-31T11:39:02.566Z,63.28
2022-10-31T11:41:34.272Z,62.93
2022-10-31T11:44:08.311Z,62.82
2022-10-31T11:46:49.080Z,63.01
2022-10-31T11:49:44.494Z,62.92
2022-10-31T11:52:18.983Z,62.79
2022-10-31T11:55:09.570Z,64.14
2022-10-31T11:57:57.930Z,63.91
2022-10-31T12:00:30.912Z,64.20
2022-10-31T12:03:17.064Z,64.97
2022-10-31T12:05:47.167Z,65.23
2022-10-31T12:08:15.233Z,64.81
2022-10-31T12:10:55.801Z,65.03
2022-10-31T12:13:34.119Z,65.68
2022-10-31T12:16:18.119Z,65.86
2022-10-31T12:19:03.369Z,66.91
2022-10-31T12:21:40.143Z,67.01
2022-10-31T12:24:20.644Z,68.03
2022-10-31T12:27:13.204Z,68.71
2022-10-31T12:30:05.534Z,68.34
2022-10-31T12:33:09.515Z,67.61
2022-10-31T12:35:46.697Z,67.58
2022-10-31T12:38:31.933Z,67.16
2022-10-31T12:41:17.719Z,67.13
2022-10-31T12:43:49.005Z,66.94
2022-10-31T12:47:00.985Z,66.02
2022-10-31T12:49:36.189Z,66.06
2022-10-31T12:52:41.786Z,65.70
2022-10-31T12:55:18.794Z,65.99
2022-10-31T12:57:54.211Z,66.73
2022-10-31T13:00:26.455Z,66.95
2022-10-31T13:03:03.149Z,67.28
2022-10-31T13:05:42.105Z,67.26
2022-10-31T13:08:49.789Z,67.25
2022-10-31T13:11:26.461Z,67.46
2022-10-31T13:14:13.680Z,67.09
2022-10-31T13:16:49.405Z,67.86
2022-10-31T13:19:42.598Z,67.58
2022-10-31T13:22:33.888Z,68.06
2022-10-31T13:25:13.380Z,68.79
2022-10-31T13:28:03.658Z,68.21
2022-10-31T13:30:43.277Z,68.13
2022-10-31T13:33:18.940Z,68.44
2022-10-31T13:35:55.489Z,68.72
2022-10-31T13:38:57.516Z,69.09
2022-10-31T13:41:49.787Z,69.14
2022-10-31T13:44:25.245Z,68.92
2022-10-31T13:46:53.976Z,69.19
2022-10-31T13:49:36.550Z,69.34
2022-10-31T13:52:23.517Z,69.59
2022-10-31T13:54:57.138Z,69.58
2022-10-31T13:57:36.733Z,69.42
2022-10-31T14:00:08.986Z,69.31
2022-10-31T14:02:50.708Z,69.23
2022-10-31T14:05:36.684Z,69.25
2022-10-31T14:08:07.715Z,69.35
2022-10-31T14:10:50.122Z,68.88
2022-10-31T14:13:24.247Z,69.46
2022-10-31T14:16:16.746Z,69.08
2022-10-31T14:18:50.805Z,69.36
2022-10-31T14:21:24.367Z,69.44
2022-10-31T14:23:55.000Z,69.39
2022-10-31T14:26:29.769Z,69.58
2022-10-31T14:29:20.327Z,69.71
2022-10-31T14:32:15.678Z,70.47
2022-10-31T14:34:52.955Z,70.55
2022-10-31T14:37:57.995Z,70.43
2022-10-31T14:41:06.518Z,70.50
2022-10-31T14:44:16.395Z,70.55
2022-10-31T14:47:12.736Z,70.65
2022-10-31T14:50:10.481Z,70.71
2022-10-31T14:52:40.062Z,70.93
2022-10-31T14:55:15.974Z,71.07
2022-10-31T14:57:53.042Z,71.21
2022-10-31T15:00:26.451Z,70.86
2022-10-31T15:03:20.190Z,71.19
2022-10-31T15:05:54.101Z,71.75
2022-10-31T15:08:55.884Z,72.16
2022-10-31T15:11:28.804Z,72.57
2022-10-31T15:14:03.542Z,73.19
2022-10-31T15:16:41.153Z,73.10
2022-10-31T15:19:13.241Z,73.37
2022-10-31T15:21:49.022Z,73.85
2022-10-31T15:24:19.631Z,74.01
2022-10-31T15:26:51.516Z,74.31
2022-10-31T15:29:24.756Z,74.35
2022-10-31T15:31:54.347Z,74.65
2022-10-31T15:34:43.180Z,74.77
2022-10-31T15:37:17.791Z,75.51
2022-10-31T15:39:46.972Z,76.21
2022-10-31T15:42:23.144Z,76.57
2022-10-31T15:45:02.858Z,76.28
2022-10-31T15:47:33.365Z,76.16
2022-10-31T15:50:02.192Z,76.69
2022-10-31T15:52:32.676Z,76.14
2022-10-31T15:55:19.275Z,76.82
2022-10-31T15:57:55.780Z,77.54
2022-10-31T16:00:32.663Z,76.82
2022-10-31T16:03:15.278Z,77.81
2022-10-31T16:05:52.748Z,77.37
2022-10-31T16:08:26.061Z,77.73
2022-10-31T16:11:17.241Z,78.37
2022-10-31T16:14:03.161Z,78.16
2022-10-31T16:16:35.746Z,78.29
2022-10-31T16:19:05.920Z,78.39
2022-10-31T16:21:39.518Z,78.50
2022-10-31T16:24:22.259Z,78.92
2022-10-31T16:26:52.638Z,79.60
2022-10-31T16:29:34.062Z,79.11
2022-10-31T16:32:01.999Z,79.29
2022-10-31T16:34:29.424Z,79.54
2022-10-31T16:36:57.000Z,80.14
2022-10-31T16:39:24.701Z,79.93
2022-10-31T16:41:56.180Z,79.11
2022-10-31T16:44:27.726Z,80.35
2022-10-31T16:47:11.145Z,80.70
2022-10-31T16:49:38.727Z,80.76
2022-10-31T16:52:06.484Z,81.08
2022-10-31T16:54:34.084Z,81.23
2022-10-31T16:57:03.985Z,81.70
2022-10-31T16:59:36.257Z,82.25
2022-10-31T17:02:06.128Z,82.12
2022-10-31T17:07:15.235Z,82.39
2022-10-31T17:10:16.156Z,81.75
2022-10-31T17:12:46.799Z,82.56
2022-10-31T17:15:49.710Z,82.44
2022-10-31T17:18:21.565Z,82.81
2022-10-31T17:21:06.521Z,82.93
2022-10-31T17:23:33.838Z,83.16
2022-10-31T17:26:01.535Z,83.59
2022-10-31T17:28:29.310Z,83.29
2022-10-31T17:30:59.510Z,83.47
2022-10-31T17:33:27.514Z,83.73
2022-10-31T17:35:54.755Z,83.85
2022-10-31T17:38:22.477Z,84.11
2022-10-31T17:40:49.787Z,84.02
2022-10-31T17:43:27.894Z,83.80
2022-10-31T17:45:55.807Z,83.52
2022-10-31T17:48:23.605Z,84.17
2022-10-31T17:51:01.619Z,84.11
2022-10-31T17:53:34.694Z,84.76
2022-10-31T17:56:41.373Z,85.07
2022-10-31T17:59:52.267Z,85.67
2022-10-31T18:02:55.763Z,85.18
2022-10-31T18:05:32.961Z,85.13
2022-10-31T18:08:03.986Z,84.83
2022-10-31T18:10:32.137Z,84.60
2022-10-31T18:12:59.820Z,84.61
2022-10-31T18:15:30.503Z,83.83
2022-10-31T18:17:58.260Z,84.33
2022-10-31T18:20:26.102Z,84.66
2022-10-31T18:22:55.338Z,84.98
2022-10-31T18:25:22.691Z,84.73
2022-10-31T18:27:50.188Z,85.25
2022-10-31T18:30:22.986Z,85.00
2022-10-31T18:32:53.367Z,84.69
2022-10-31T18:35:24.469Z,84.41
2022-10-31T18:37:56.939Z,84.46
2022-10-31T18:40:27.359Z,84.01
2022-10-31T18:42:55.561Z,83.24
2022-10-31T18:45:33.934Z,83.06
2022-10-31T18:48:19.856Z,83.14
2022-10-31T18:50:48.167Z,82.88
2022-10-31T18:53:18.947Z,82.78
2022-10-31T18:55:49.211Z,82.65
2022-10-31T18:58:18.513Z,82.75
2022-10-31T19:00:47.546Z,82.45
2022-10-31T19:03:15.753Z,81.88
2022-10-31T19:05:43.546Z,82.15
2022-10-31T19:08:19.935Z,82.02
2022-10-31T19:10:48.139Z,81.89
2022-10-31T19:13:17.152Z,81.64
2022-10-31T19:15:45.416Z,81.86
2022-10-31T19:18:13.188Z,81.78
2022-10-31T19:20:42.092Z,81.93
2022-10-31T19:23:18.444Z,81.86
2022-10-31T19:25:51.622Z,81.51
2022-10-31T19:28:22.024Z,81.64
2022-10-31T19:30:59.352Z,81.50
2022-10-31T19:33:34.848Z,81.76
2022-10-31T19:36:17.707Z,81.71
2022-10-31T19:38:52.117Z,81.98
2022-10-31T19:41:44.348Z,81.94
2022-10-31T19:44:21.506Z,81.49
2022-10-31T19:46:53.739Z,81.83
2022-10-31T19:49:22.873Z,81.69
2022-10-31T19:52:01.902Z,82.17
2022-10-31T19:54:42.093Z,81.92
2022-10-31T19:57:09.754Z,81.62
2022-10-31T19:59:45.874Z,82.09
2022-10-31T20:02:21.226Z,82.38
2022-10-31T20:04:49.109Z,82.17
2022-10-31T20:07:16.553Z,82.07
2022-10-31T20:09:47.177Z,82.08
2022-10-31T20:12:14.674Z,81.55
2022-10-31T20:14:42.247Z,81.94
2022-10-31T20:17:09.718Z,81.75
2022-10-31T20:19:46.532Z,81.85
2022-10-31T20:22:21.200Z,81.98
2022-10-31T20:24:48.841Z,81.78
2022-10-31T20:27:16.377Z,81.88
2022-10-31T20:29:47.631Z,82.15
2022-10-31T20:32:15.387Z,81.87
2022-10-31T20:34:42.994Z,81.79
2022-10-31T20:37:17.734Z,81.75
2022-10-31T20:39:45.289Z,82.35
2022-10-31T20:42:13.205Z,82.25
2022-10-31T20:44:40.654Z,82.09
2022-10-31T20:47:08.084Z,81.87
2022-10-31T20:49:35.551Z,81.66
2022-10-31T20:52:02.971Z,81.84
2022-10-31T20:54:30.182Z,81.63
2022-10-31T20:57:03.351Z,81.80
2022-10-31T20:59:30.995Z,82.09
2022-10-31T21:01:58.612Z,81.82
2022-10-31T21:04:26.146Z,81.89
2022-10-31T21:06:53.590Z,81.92
2022-10-31T21:09:21.245Z,82.21
2022-10-31T21:11:48.552Z,82.86
2022-10-31T21:14:16.286Z,82.31
2022-10-31T21:16:44.051Z,82.13
2022-10-31T21:19:13.229Z,82.08
2022-10-31T21:21:40.759Z,82.18
2022-10-31T21:24:13.728Z,82.07
2022-10-31T21:26:44.003Z,81.86
2022-10-31T21:29:15.007Z,82.17
2022-10-31T21:31:44.263Z,81.95
2022-10-31T21:34:18.563Z,81.65
2022-10-31T21:37:10.916Z,81.24
2022-10-31T21:39:40.639Z,81.25
2022-10-31T21:42:08.348Z,81.20
2022-10-31T21:44:35.676Z,81.35
2022-10-31T21:47:09.699Z,81.68
2022-10-31T21:49:37.701Z,81.16
2022-10-31T21:52:05.554Z,81.76
2022-10-31T21:54:35.647Z,81.32
2022-10-31T21:57:06.356Z,81.52
2022-10-31T21:59:33.652Z,81.26
2022-10-31T22:02:01.685Z,81.69
2022-10-31T22:04:36.918Z,81.87
2022-10-31T22:07:05.467Z,81.44
2022-10-31T22:09:39.240Z,80.89
2022-10-31T22:12:09.451Z,81.33
2022-10-31T22:14:37.221Z,80.82
2022-10-31T22:17:04.880Z,80.64
2022-10-31T22:19:35.490Z,80.04
2022-10-31T22:22:03.377Z,79.96
2022-10-31T22:24:30.981Z,79.74
2022-10-31T22:26:58.701Z,79.56
2022-10-31T22:29:31.899Z,79.55
2022-10-31T22:32:01.619Z,79.66
2022-10-31T22:34:29.406Z,79.30
2022-10-31T22:37:07.642Z,78.91
2022-10-31T22:39:35.220Z,79.19
2022-10-31T22:42:04.199Z,78.87
2022-10-31T22:44:32.420Z,78.50
2022-10-31T22:46:59.640Z,78.32
2022-10-31T22:49:32.128Z,77.78
2022-10-31T22:52:03.768Z,77.92
2022-10-31T22:54:31.586Z,77.89
2022-10-31T22:57:01.897Z,77.60
2022-10-31T22:59:36.023Z,77.59
2022-10-31T23:02:06.019Z,77.95
2022-10-31T23:04:35.921Z,77.54
2022-10-31T23:07:03.898Z,77.40
2022-10-31T23:09:34.029Z,77.49
2022-10-31T23:12:23.410Z,77.60
2022-10-31T23:14:50.780Z,77.27
2022-10-31T23:17:18.233Z,77.01
2022-10-31T23:19:46.461Z,77.05
2022-10-31T23:22:14.135Z,77.16
2022-10-31T23:24:43.865Z,76.67
2022-10-31T23:27:17.821Z,76.99
2022-10-31T23:29:48.474Z,76.66
2022-10-31T23:32:27.417Z,77.13
2022-10-31T23:34:57.367Z,76.85
2022-10-31T23:37:27.994Z,76.96
2022-10-31T23:39:56.479Z,76.69
2022-10-31T23:42:24.982Z,76.75
2022-10-31T23:44:52.485Z,76.84
2022-10-31T23:47:21.910Z,76.77
2022-10-31T23:49:49.366Z,76.54
2022-10-31T23:52:17.452Z,76.61
2022-10-31T23:54:44.903Z,76.72
2022-10-31T23:57:14.992Z,76.84
2022-10-31T23:59:42.369Z,77.04
